Time;durP1;ratioP1;P1;durP2;ratioP2;P2;SDS_P1;SDS_P2;PMS_P1;PMS_P2;Temp;Humidity;BMP_temperature;BMP_pressure;BME280_temperature;BME280_humidity;BME280_pressure;Samples;Min_cycle;Max_cycle;Signal;HPM_P1;HPM_P2
2022/03/26 00:01:14;;;;;;;;;;;;;;;;;;5159058;27;19907;-75
2022/03/26 00:03:39;;;;;;;;;;;;;;;;;;5158847;27;19939;-74
2022/03/26 00:06:06;;;;;;;;;;;;;;;;;;5123132;27;19960;-75
2022/03/26 00:08:31;;;;;;;;;;;;;;;;;;5140452;27;20353;-75
2022/03/26 00:10:57;;;;;;;;;;;;;;;;;;5158775;27;19907;-75
2022/03/26 00:13:23;;;;;;;;;;;;;;;;;;5158219;27;19935;-75
2022/03/26 00:15:48;;;;;;;;;;;;;;;;;;5159122;27;19994;-75
2022/03/26 00:18:17;;;;;;;;;;;;;;;;;;5143976;27;20009;-75
2022/03/26 00:20:43;;;;;;;;;;;;;;;;;;5162735;27;19911;-76
2022/03/26 00:23:09;;;;;;;;;;;;;;;;;;5143513;27;20229;-75
2022/03/26 00:25:35;;;;;;;;;;;;;;;;;;5143953;27;20265;-74
2022/03/26 00:28:01;;;;;;;;;;;;;;;;;;5162303;27;20070;-75
2022/03/26 00:30:27;;;;;;;;;;;;;;;;;;5143875;27;19960;-75
2022/03/26 00:32:52;;;;;;;;;;;;;;;;;;5162259;27;19911;-76
2022/03/26 00:35:18;;;;;;;;;;;;;;;;;;5143243;27;19907;-74
2022/03/26 00:37:44;;;;;;;;;;;;;;;;;;5162155;27;19911;-74
2022/03/26 00:40:10;;;;;;;;;;;;;;;;;;5143476;27;19998;-75
2022/03/26 00:42:36;;;;;;;;;;;;;;;;;;5161498;27;19998;-74
2022/03/26 00:45:02;;;;;;;;;;;;;;;;;;5162089;27;20375;-76
2022/03/26 00:47:28;;;;;;;;;;;;;;;;;;5161911;27;20014;-75
2022/03/26 00:49:54;;;;;;;;;;;;;;;;;;5161821;27;19939;-75
2022/03/26 00:52:20;;;;;;;;;;;;;;;;;;5142992;27;20305;-76
2022/03/26 00:54:46;;;;;;;;;;;;;;;;;;5143216;27;19907;-75
2022/03/26 00:57:11;;;;;;;;;;;;;;;;;;5161153;27;19911;-73
2022/03/26 00:59:37;;;;;;;;;;;;;;;;;;5142984;27;20216;-74
2022/03/26 01:02:03;;;;;;;;;;;;;;;;;;5161636;27;19907;-74
2022/03/26 01:04:29;;;;;;;;;;;;;;;;;;5143032;27;19942;-74
2022/03/26 01:06:55;;;;;;;;;;;;;;;;;;5142942;27;19956;-75
2022/03/26 01:09:21;;;;;;;;;;;;;;;;;;5160837;27;19918;-74
2022/03/26 01:11:46;;;;;;;;;;;;;;;;;;5143033;27;19998;-75
2022/03/26 01:14:12;;;;;;;;;;;;;;;;;;5142327;27;19959;-74
2022/03/26 01:16:38;;;;;;;;;;;;;;;;;;5161090;27;20305;-74
2022/03/26 01:19:04;;;;;;;;;;;;;;;;;;5142521;27;19943;-74
2022/03/26 01:21:29;;;;;;;;;;;;;;;;;;5142126;27;19994;-75
2022/03/26 01:23:55;;;;;;;;;;;;;;;;;;5160946;27;20356;-73
2022/03/26 01:26:21;;;;;;;;;;;;;;;;;;5142236;27;20332;-74
2022/03/26 01:28:47;;;;;;;;;;;;;;;;;;5124134;27;19914;-74
2022/03/26 01:31:13;;;;;;;;;;;;;;;;;;5158881;27;19911;-76
2022/03/26 01:33:38;;;;;;;;;;;;;;;;;;5121253;27;19929;-75
2022/03/26 01:36:10;;;;;;;;;;;;;;;;;;5140470;27;19971;-75
2022/03/26 01:38:37;;;;;;;;;;;;;;;;;;5133046;27;19994;-75
2022/03/26 01:41:08;;;;;;;;;;;;;;;;;;5134545;27;19913;-73
2022/03/26 01:43:40;;;;;;;;;;;;;;;;;;5101566;27;19914;-76
2022/03/26 01:46:14;;;;;;;;;;;;;;;;;;5107213;27;20262;-75
2022/03/26 01:48:45;;;;;;;;;;;;;;;;;;5131895;27;19914;-74
2022/03/26 01:51:14;;;;;;;;;;;;;;;;;;5120442;27;19917;-74
2022/03/26 01:53:40;;;;;;;;;;;;;;;;;;5097411;27;20084;-74
2022/03/26 01:56:07;;;;;;;;;;;;;;;;;;5118114;27;19912;-74
2022/03/26 01:58:35;;;;;;;;;;;;;;;;;;5094054;27;19946;-75
2022/03/26 02:01:01;;;;;;;;;;;;;;;;;;5120500;27;19919;-74
2022/03/26 02:03:27;;;;;;;;;;;;;;;;;;5139470;27;19907;-74
2022/03/26 02:05:54;;;;;;;;;;;;;;;;;;5138924;27;19908;-75
2022/03/26 02:08:20;;;;;;;;;;;;;;;;;;5139609;27;19915;-74
2022/03/26 02:10:46;;;;;;;;;;;;;;;;;;5139146;27;19907;-75
2022/03/26 02:13:12;;;;;;;;;;;;;;;;;;5139092;27;20305;-74
2022/03/26 02:15:37;;;;;;;;;;;;;;;;;;5139487;27;19953;-75
2022/03/26 02:18:03;;;;;;;;;;;;;;;;;;5139122;27;19922;-74
2022/03/26 02:20:29;;;;;;;;;;;;;;;;;;5138556;27;19908;-74
2022/03/26 02:22:55;;;;;;;;;;;;;;;;;;5139110;27;19942;-75
2022/03/26 02:25:20;;;;;;;;;;;;;;;;;;5120549;27;19956;-75
2022/03/26 02:27:46;;;;;;;;;;;;;;;;;;5103182;27;19920;-75
2022/03/26 02:30:12;;;;;;;;;;;;;;;;;;5138672;27;19908;-75
2022/03/26 02:32:38;;;;;;;;;;;;;;;;;;5103001;27;20209;-74
2022/03/26 02:35:04;;;;;;;;;;;;;;;;;;5120223;27;20258;-74
2022/03/26 02:37:29;;;;;;;;;;;;;;;;;;5138406;27;19953;-75
2022/03/26 02:39:55;;;;;;;;;;;;;;;;;;5137993;27;19953;-73
2022/03/26 02:42:21;;;;;;;;;;;;;;;;;;5119856;27;20332;-74
2022/03/26 02:44:47;;;;;;;;;;;;;;;;;;5138215;27;20293;-74
2022/03/26 02:47:12;;;;;;;;;;;;;;;;;;5119962;27;19923;-73
2022/03/26 02:49:38;;;;;;;;;;;;;;;;;;5139041;27;19907;-74
2022/03/26 02:52:04;;;;;;;;;;;;;;;;;;5137513;27;19908;-75
2022/03/26 02:54:30;;;;;;;;;;;;;;;;;;5118691;27;19908;-75
2022/03/26 02:56:56;;;;;;;;;;;;;;;;;;5119594;28;19961;-76
2022/03/26 02:59:21;;;;;;;;;;;;;;;;;;5137547;27;19923;-74
2022/03/26 03:01:47;;;;;;;;;;;;;;;;;;5137573;27;20293;-75
2022/03/26 03:04:13;;;;;;;;;;;;;;;;;;5117448;27;19915;-74
2022/03/26 03:06:39;;;;;;;;;;;;;;;;;;5098573;27;19995;-75
2022/03/26 03:09:05;;;;;;;;;;;;;;;;;;5135793;27;19942;-73
2022/03/26 03:11:31;;;;;;;;;;;;;;;;;;5118347;28;20346;-73
2022/03/26 03:13:58;;;;;;;;;;;;;;;;;;5101667;28;19911;-75
2022/03/26 03:16:24;;;;;;;;;;;;;;;;;;5118303;28;19908;-74
2022/03/26 03:18:53;;;;;;;;;;;;;;;;;;5117780;28;19967;-75
2022/03/26 03:21:19;;;;;;;;;;;;;;;;;;5100805;28;19907;-75
2022/03/26 03:23:46;;;;;;;;;;;;;;;;;;5117605;28;19912;-74
2022/03/26 03:26:12;;;;;;;;;;;;;;;;;;5118267;28;20309;-75
2022/03/26 03:28:41;;;;;;;;;;;;;;;;;;5136148;28;19915;-76
2022/03/26 03:31:07;;;;;;;;;;;;;;;;;;5118509;28;19911;-75
2022/03/26 03:33:33;;;;;;;;;;;;;;;;;;5118300;28;20300;-74
2022/03/26 03:35:59;;;;;;;;;;;;;;;;;;5134555;28;19937;-73
2022/03/26 03:38:25;;;;;;;;;;;;;;;;;;5118131;28;20221;-73
2022/03/26 03:40:51;;;;;;;;;;;;;;;;;;5117255;28;20243;-75
2022/03/26 03:43:17;;;;;;;;;;;;;;;;;;5100530;28;20300;-75
2022/03/26 03:45:44;;;;;;;;;;;;;;;;;;5118504;28;20285;-74
2022/03/26 03:48:10;;;;;;;;;;;;;;;;;;5117889;28;19922;-73
2022/03/26 03:50:35;;;;;;;;;;;;;;;;;;5117623;28;19907;-74
2022/03/26 03:53:04;;;;;;;;;;;;;;;;;;5122999;27;20052;-74
2022/03/26 03:55:29;;;;;;;;;;;;;;;;;;5105660;27;20312;-74
2022/03/26 03:57:55;;;;;;;;;;;;;;;;;;5140797;27;19914;-75
2022/03/26 04:00:21;;;;;;;;;;;;;;;;;;5142851;27;19968;-76
2022/03/26 04:02:46;;;;;;;;;;;;;;;;;;5140246;27;19908;-75
2022/03/26 04:05:13;;;;;;;;;;;;;;;;;;5123080;27;19915;-75
2022/03/26 04:07:39;;;;;;;;;;;;;;;;;;5121237;27;19964;-75
2022/03/26 04:10:07;;;;;;;;;;;;;;;;;;5140369;27;19908;-74
2022/03/26 04:12:32;;;;;;;;;;;;;;;;;;5124527;22;19911;-74
2022/03/26 04:14:58;;;;;;;;;;;;;;;;;;5099253;28;19908;-74
2022/03/26 04:17:24;;;;;;;;;;;;;;;;;;5099472;28;19909;-74
2022/03/26 04:19:50;;;;;;;;;;;;;;;;;;5100281;28;20333;-74
2022/03/26 04:22:15;;;;;;;;;;;;;;;;;;5085083;28;20316;-75
2022/03/26 04:24:41;;;;;;;;;;;;;;;;;;5119402;28;19908;-74
2022/03/26 04:27:07;;;;;;;;;;;;;;;;;;5118148;28;19955;-75
2022/03/26 04:29:32;;;;;;;;;;;;;;;;;;5101808;28;19915;-73
2022/03/26 04:31:58;;;;;;;;;;;;;;;;;;5122050;28;20010;-74
2022/03/26 04:34:24;;;;;;;;;;;;;;;;;;5102118;28;19996;-74
2022/03/26 04:36:50;;;;;;;;;;;;;;;;;;5120048;28;19908;-74
2022/03/26 04:39:16;;;;;;;;;;;;;;;;;;5084452;28;19907;-74
2022/03/26 04:41:42;;;;;;;;;;;;;;;;;;5084232;28;19908;-76
2022/03/26 04:44:08;;;;;;;;;;;;;;;;;;5118937;28;20298;-74
2022/03/26 04:46:34;;;;;;;;;;;;;;;;;;5117913;28;19916;-75
2022/03/26 04:49:00;;;;;;;;;;;;;;;;;;5119017;28;19912;-76
2022/03/26 04:51:25;;;;;;;;;;;;;;;;;;5101661;28;19908;-74
2022/03/26 04:53:51;;;;;;;;;;;;;;;;;;5121439;28;19908;-75
2022/03/26 04:56:17;;;;;;;;;;;;;;;;;;5085860;28;20194;-75
2022/03/26 04:58:43;;;;;;;;;;;;;;;;;;5119394;28;20321;-75
2022/03/26 05:01:09;;;;;;;;;;;;;;;;;;5101896;28;19935;-75
2022/03/26 05:03:35;;;;;;;;;;;;;;;;;;5100167;28;20231;-75
2022/03/26 05:06:00;;;;;;;;;;;;;;;;;;5101178;28;19915;-76
2022/03/26 05:08:26;;;;;;;;;;;;;;;;;;5118570;28;19916;-75
2022/03/26 05:10:52;;;;;;;;;;;;;;;;;;5119392;28;19914;-75
2022/03/26 05:13:18;;;;;;;;;;;;;;;;;;5120562;28;19915;-74
2022/03/26 05:15:44;;;;;;;;;;;;;;;;;;5101276;28;19934;-74
2022/03/26 05:18:09;;;;;;;;;;;;;;;;;;5118532;28;20316;-74
2022/03/26 05:20:35;;;;;;;;;;;;;;;;;;5101008;28;19983;-74
2022/03/26 05:23:02;;;;;;;;;;;;;;;;;;5120049;28;19908;-74
2022/03/26 05:25:28;;;;;;;;;;;;;;;;;;5100982;28;19908;-75
2022/03/26 05:27:53;;;;;;;;;;;;;;;;;;5120176;28;19916;-73
2022/03/26 05:30:19;;;;;;;;;;;;;;;;;;5084701;28;20320;-76
2022/03/26 05:32:45;;;;;;;;;;;;;;;;;;5120037;28;19945;-73
2022/03/26 05:35:14;;;;;;;;;;;;;;;;;;5101307;28;19914;-73
2022/03/26 05:37:40;;;;;;;;;;;;;;;;;;5102312;28;19914;-73
2022/03/26 05:40:07;;;;;;;;;;;;;;;;;;5103695;28;19908;-73
2022/03/26 05:42:33;;;;;;;;;;;;;;;;;;5102217;28;19953;-73
2022/03/26 05:44:59;;;;;;;;;;;;;;;;;;5119444;28;19912;-74
2022/03/26 05:47:25;;;;;;;;;;;;;;;;;;5118276;28;20293;-74
2022/03/26 05:49:50;;;;;;;;;;;;;;;;;;5083347;28;20303;-75
2022/03/26 05:52:16;;;;;;;;;;;;;;;;;;5122701;28;19928;-74
2022/03/26 05:54:42;;;;;;;;;;;;;;;;;;5103412;28;19920;-74
2022/03/26 05:57:08;;;;;;;;;;;;;;;;;;5086280;28;20371;-75
2022/03/26 05:59:33;;;;;;;;;;;;;;;;;;5099844;28;19972;-75
2022/03/26 06:02:00;;;;;;;;;;;;;;;;;;5116733;28;19919;-76
2022/03/26 06:04:28;;;;;;;;;;;;;;;;;;5098311;28;19908;-74
2022/03/26 06:06:54;;;;;;;;;;;;;;;;;;5099160;28;20297;-74
2022/03/26 06:09:20;;;;;;;;;;;;;;;;;;5099407;28;19908;-74
2022/03/26 06:11:49;;;;;;;;;;;;;;;;;;5116256;28;20435;-74
2022/03/26 06:14:17;;;;;;;;;;;;;;;;;;5116294;28;19951;-73
2022/03/26 06:16:43;;;;;;;;;;;;;;;;;;5116783;28;20102;-74
2022/03/26 06:19:09;;;;;;;;;;;;;;;;;;5116516;28;19943;-74
2022/03/26 06:21:36;;;;;;;;;;;;;;;;;;5081101;28;20015;-74
2022/03/26 06:24:02;;;;;;;;;;;;;;;;;;5117774;28;19961;-73
2022/03/26 06:26:28;;;;;;;;;;;;;;;;;;5116129;28;19916;-73
2022/03/26 06:28:54;;;;;;;;;;;;;;;;;;5081331;28;20203;-73
2022/03/26 06:31:19;;;;;;;;;;;;;;;;;;5082851;28;20313;-73
2022/03/26 06:33:45;;;;;;;;;;;;;;;;;;5116811;28;19908;-73
2022/03/26 06:36:13;;;;;;;;;;;;;;;;;;5116840;28;19915;-74
2022/03/26 06:38:41;;;;;;;;;;;;;;;;;;5116437;28;20389;-74
2022/03/26 06:41:07;;;;;;;;;;;;;;;;;;5099398;28;19908;-73
2022/03/26 06:43:33;;;;;;;;;;;;;;;;;;5117500;28;19908;-73
2022/03/26 06:45:58;;;;;;;;;;;;;;;;;;5099010;28;20021;-73
2022/03/26 06:48:24;;;;;;;;;;;;;;;;;;5116784;28;19916;-75
2022/03/26 06:50:50;;;;;;;;;;;;;;;;;;5116742;28;19915;-74
2022/03/26 06:53:16;;;;;;;;;;;;;;;;;;5117229;28;19908;-73
2022/03/26 06:55:41;;;;;;;;;;;;;;;;;;5116909;28;19908;-74
2022/03/26 06:58:07;;;;;;;;;;;;;;;;;;5117439;28;19907;-73
2022/03/26 07:00:33;;;;;;;;;;;;;;;;;;5082385;28;19908;-73
2022/03/26 07:02:58;;;;;;;;;;;;;;;;;;5099605;28;19965;-74
2022/03/26 07:05:24;;;;;;;;;;;;;;;;;;5117156;28;19908;-73
2022/03/26 07:07:50;;;;;;;;;;;;;;;;;;5117649;28;19923;-73
2022/03/26 07:10:16;;;;;;;;;;;;;;;;;;5119331;28;20274;-74
2022/03/26 07:12:42;;;;;;;;;;;;;;;;;;5117124;28;19916;-73
2022/03/26 07:15:08;;;;;;;;;;;;;;;;;;5099145;28;19960;-73
2022/03/26 07:17:34;;;;;;;;;;;;;;;;;;5117225;28;19970;-72
2022/03/26 07:19:59;;;;;;;;;;;;;;;;;;5117841;28;19916;-73
2022/03/26 07:22:25;;;;;;;;;;;;;;;;;;5117201;28;19931;-74
2022/03/26 07:24:51;;;;;;;;;;;;;;;;;;5117660;28;19908;-73
2022/03/26 07:27:16;;;;;;;;;;;;;;;;;;5102780;28;20336;-74
2022/03/26 07:29:42;;;;;;;;;;;;;;;;;;5121277;28;19908;-73
2022/03/26 07:32:09;;;;;;;;;;;;;;;;;;5120412;28;19908;-73
2022/03/26 07:34:35;;;;;;;;;;;;;;;;;;5102722;28;19907;-73
2022/03/26 07:37:01;;;;;;;;;;;;;;;;;;5102399;28;19961;-73
2022/03/26 07:39:27;;;;;;;;;;;;;;;;;;5120910;28;20002;-73
2022/03/26 07:41:53;;;;;;;;;;;;;;;;;;5120392;28;19911;-74
2022/03/26 07:44:18;;;;;;;;;;;;;;;;;;5102973;28;19950;-73
2022/03/26 07:46:44;;;;;;;;;;;;;;;;;;5102997;28;20291;-74
2022/03/26 07:49:10;;;;;;;;;;;;;;;;;;5085711;28;19907;-74
2022/03/26 07:51:35;;;;;;;;;;;;;;;;;;5119707;28;20002;-72
2022/03/26 07:54:01;;;;;;;;;;;;;;;;;;5120377;28;19908;-75
2022/03/26 07:56:27;;;;;;;;;;;;;;;;;;5121675;28;20222;-74
2022/03/26 07:58:54;;;;;;;;;;;;;;;;;;5121102;28;19908;-73
2022/03/26 08:01:19;;;;;;;;;;;;;;;;;;5120696;28;19918;-74
2022/03/26 08:03:45;;;;;;;;;;;;;;;;;;5120723;28;19994;-74
2022/03/26 08:06:11;;;;;;;;;;;;;;;;;;5121226;28;19943;-73
2022/03/26 08:08:37;;;;;;;;;;;;;;;;;;5102313;28;19915;-74
2022/03/26 08:11:03;;;;;;;;;;;;;;;;;;5102475;28;19966;-74
2022/03/26 08:13:28;;;;;;;;;;;;;;;;;;5085561;28;20203;-73
2022/03/26 08:15:54;;;;;;;;;;;;;;;;;;5119985;28;19926;-74
2022/03/26 08:18:20;;;;;;;;;;;;;;;;;;5102018;28;19915;-74
2022/03/26 08:20:46;;;;;;;;;;;;;;;;;;5121044;28;20337;-73
2022/03/26 08:23:11;;;;;;;;;;;;;;;;;;5120812;28;19960;-73
2022/03/26 08:28:21;;;;;;;;;;;;;;;;;;5121271;28;19923;-73
2022/03/26 08:30:47;;;;;;;;;;;;;;;;;;5102794;28;19908;-74
2022/03/26 08:33:13;;;;;;;;;;;;;;;;;;5102470;28;20221;-74
2022/03/26 08:35:39;;;;;;;;;;;;;;;;;;5102216;28;19908;-74
2022/03/26 08:38:04;;;;;;;;;;;;;;;;;;5119568;28;19907;-74
2022/03/26 08:40:30;;;;;;;;;;;;;;;;;;5102311;28;19907;-73
2022/03/26 08:42:58;;;;;;;;;;;;;;;;;;5102216;28;19936;-73
2022/03/26 08:45:24;;;;;;;;;;;;;;;;;;5085663;28;19907;-74
2022/03/26 08:47:50;;;;;;;;;;;;;;;;;;5119770;28;19969;-73
2022/03/26 08:50:15;;;;;;;;;;;;;;;;;;5120359;28;19908;-73
2022/03/26 08:52:41;;;;;;;;;;;;;;;;;;5101658;28;19912;-74
2022/03/26 08:55:08;;;;;;;;;;;;;;;;;;5101647;28;19946;-73
2022/03/26 08:57:34;;;;;;;;;;;;;;;;;;5101764;28;19915;-73
2022/03/26 09:00:00;;;;;;;;;;;;;;;;;;5120161;28;19911;-73
2022/03/26 09:02:26;;;;;;;;;;;;;;;;;;5120135;28;19912;-73
2022/03/26 09:04:52;;;;;;;;;;;;;;;;;;5101331;28;19915;-74
2022/03/26 09:07:18;;;;;;;;;;;;;;;;;;5101502;28;20322;-73
2022/03/26 09:09:43;;;;;;;;;;;;;;;;;;5103869;28;19974;-73
2022/03/26 09:12:09;;;;;;;;;;;;;;;;;;5085321;28;19915;-73
2022/03/26 09:14:35;;;;;;;;;;;;;;;;;;5101593;28;19916;-73
2022/03/26 09:17:00;;;;;;;;;;;;;;;;;;5102024;28;20263;-74
2022/03/26 09:19:26;;;;;;;;;;;;;;;;;;5102188;28;19907;-73
2022/03/26 09:21:52;;;;;;;;;;;;;;;;;;5119285;28;20257;-73
2022/03/26 09:24:18;;;;;;;;;;;;;;;;;;5101578;28;19908;-73
2022/03/26 09:26:43;;;;;;;;;;;;;;;;;;5101486;28;19920;-73
2022/03/26 09:29:09;;;;;;;;;;;;;;;;;;5119361;28;19998;-73
2022/03/26 09:31:35;;;;;;;;;;;;;;;;;;5119797;28;19929;-73
2022/03/26 09:34:00;;;;;;;;;;;;;;;;;;5102184;28;19914;-73
2022/03/26 09:36:26;;;;;;;;;;;;;;;;;;5101660;28;20003;-73
2022/03/26 09:38:52;;;;;;;;;;;;;;;;;;5102745;28;20202;-72
2022/03/26 09:41:17;;;;;;;;;;;;;;;;;;5119089;28;20305;-73
2022/03/26 09:43:43;;;;;;;;;;;;;;;;;;5120081;28;19911;-73
2022/03/26 09:46:09;;;;;;;;;;;;;;;;;;5119218;28;20313;-73
2022/03/26 09:48:35;;;;;;;;;;;;;;;;;;5101052;28;19916;-73
2022/03/26 09:51:00;;;;;;;;;;;;;;;;;;5100618;28;19908;-73
2022/03/26 09:53:26;;;;;;;;;;;;;;;;;;5118651;28;19933;-73
2022/03/26 09:55:52;;;;;;;;;;;;;;;;;;5100539;28;19998;-73
2022/03/26 09:58:18;;;;;;;;;;;;;;;;;;5119147;28;20299;-73
2022/03/26 10:00:44;;;;;;;;;;;;;;;;;;5101208;28;20002;-73
2022/03/26 10:03:10;;;;;;;;;;;;;;;;;;5119192;28;19954;-72
2022/03/26 10:05:36;;;;;;;;;;;;;;;;;;5100919;28;20014;-73
2022/03/26 10:08:01;;;;;;;;;;;;;;;;;;5100725;28;19915;-73
2022/03/26 10:10:27;;;;;;;;;;;;;;;;;;5100821;28;19907;-73
2022/03/26 10:12:53;;;;;;;;;;;;;;;;;;5118814;28;20264;-73
2022/03/26 10:15:19;;;;;;;;;;;;;;;;;;5083594;28;19965;-74
2022/03/26 10:17:46;;;;;;;;;;;;;;;;;;5101101;28;19908;-72
2022/03/26 10:20:12;;;;;;;;;;;;;;;;;;5118263;28;19908;-73
2022/03/26 10:22:37;;;;;;;;;;;;;;;;;;5100839;28;19908;-73
2022/03/26 10:25:03;;;;;;;;;;;;;;;;;;5118623;28;19908;-73
2022/03/26 10:27:29;;;;;;;;;;;;;;;;;;5122625;28;19973;-73
2022/03/26 10:29:54;;;;;;;;;;;;;;;;;;5100283;28;19908;-72
2022/03/26 10:32:38;;;;;;;;;;;;;;;;;;5118543;28;20298;-73
2022/03/26 10:35:04;;;;;;;;;;;;;;;;;;5117972;28;19914;-72
2022/03/26 10:37:30;;;;;;;;;;;;;;;;;;5118202;28;19908;-72
2022/03/26 10:39:56;;;;;;;;;;;;;;;;;;5099857;28;19911;-73
2022/03/26 10:42:21;;;;;;;;;;;;;;;;;;5118277;28;20352;-72
2022/03/26 10:44:47;;;;;;;;;;;;;;;;;;5118316;28;19908;-73
2022/03/26 10:47:13;;;;;;;;;;;;;;;;;;5118282;28;19939;-72
2022/03/26 10:49:40;;;;;;;;;;;;;;;;;;5118307;28;19907;-73
2022/03/26 10:52:06;;;;;;;;;;;;;;;;;;5100216;28;20320;-72
2022/03/26 10:54:32;;;;;;;;;;;;;;;;;;5118281;28;19908;-73
2022/03/26 10:56:58;;;;;;;;;;;;;;;;;;5118242;28;19943;-73
2022/03/26 10:59:24;;;;;;;;;;;;;;;;;;5118043;28;20332;-73
2022/03/26 11:01:50;;;;;;;;;;;;;;;;;;5118227;28;19912;-73
2022/03/26 11:04:16;;;;;;;;;;;;;;;;;;5118386;28;19914;-73
2022/03/26 11:06:42;;;;;;;;;;;;;;;;;;5117611;28;20233;-73
2022/03/26 11:09:08;;;;;;;;;;;;;;;;;;5100037;28;19930;-73
2022/03/26 11:11:33;;;;;;;;;;;;;;;;;;5118123;28;19947;-73
2022/03/26 11:14:01;;;;;;;;;;;;;;;;;;5099625;28;20275;-74
2022/03/26 11:16:27;;;;;;;;;;;;;;;;;;5118376;28;19953;-72
2022/03/26 11:18:53;;;;;;;;;;;;;;;;;;5100049;28;19912;-73
2022/03/26 11:21:19;;;;;;;;;;;;;;;;;;5100525;28;19908;-73
2022/03/26 11:23:46;;;;;;;;;;;;;;;;;;5099581;28;19990;-73
2022/03/26 11:26:11;;;;;;;;;;;;;;;;;;5083481;28;19931;-73
2022/03/26 11:28:37;;;;;;;;;;;;;;;;;;5117884;28;20318;-73
2022/03/26 11:31:03;;;;;;;;;;;;;;;;;;5117955;28;19908;-73
2022/03/26 11:33:28;;;;;;;;;;;;;;;;;;5118226;28;19908;-73
2022/03/26 11:35:54;;;;;;;;;;;;;;;;;;5101207;28;19908;-73
2022/03/26 11:38:20;;;;;;;;;;;;;;;;;;5083985;28;19999;-73
2022/03/26 11:40:46;;;;;;;;;;;;;;;;;;5121071;28;20306;-73
2022/03/26 11:43:12;;;;;;;;;;;;;;;;;;5086278;28;19908;-73
2022/03/26 11:51:06;;;;;;;;;;;;;;;;;;5117080;28;19930;-73
2022/03/26 11:53:33;;;;;;;;;;;;;;;;;;5099001;28;20301;-73
2022/03/26 11:55:59;;;;;;;;;;;;;;;;;;5118758;28;20306;-73
2022/03/26 11:58:27;;;;;;;;;;;;;;;;;;5118270;28;19908;-73
2022/03/26 12:00:52;;;;;;;;;;;;;;;;;;5098994;28;19977;-73
2022/03/26 12:03:18;;;;;;;;;;;;;;;;;;5099534;28;20294;-73
2022/03/26 12:08:28;;;;;;;;;;;;;;;;;;5099174;28;20237;-73
2022/03/26 12:13:27;;;;;;;;;;;;;;;;;;5120335;28;20342;-81
2022/03/26 12:15:53;;;;;;;;;;;;;;;;;;5122744;28;19915;-80
2022/03/26 12:18:18;;;;;;;;;;;;;;;;;;5104494;28;19952;-81
2022/03/26 12:20:44;;;;;;;;;;;;;;;;;;5104582;28;19912;-79
2022/03/26 12:23:11;;;;;;;;;;;;;;;;;;5104325;28;19912;-80
2022/03/26 12:25:36;;;;;;;;;;;;;;;;;;5104366;28;19908;-80
2022/03/26 12:28:02;;;;;;;;;;;;;;;;;;5104196;28;19916;-80
2022/03/26 12:30:28;;;;;;;;;;;;;;;;;;5104901;28;19908;-81
2022/03/26 12:32:55;;;;;;;;;;;;;;;;;;5123922;28;19915;-80
2022/03/26 12:35:21;;;;;;;;;;;;;;;;;;5105650;28;19912;-80
2022/03/26 12:37:47;;;;;;;;;;;;;;;;;;5104708;28;20221;-80
2022/03/26 12:40:12;;;;;;;;;;;;;;;;;;5128320;28;19908;-81
2022/03/26 12:42:38;;;;;;;;;;;;;;;;;;5088518;28;19907;-80
2022/03/26 12:45:04;;;;;;;;;;;;;;;;;;5123239;28;20275;-80
2022/03/26 12:47:30;;;;;;;;;;;;;;;;;;5104875;28;19942;-80
2022/03/26 12:49:57;;;;;;;;;;;;;;;;;;5105660;28;19908;-81
2022/03/26 12:52:22;;;;;;;;;;;;;;;;;;5105579;28;20305;-80
2022/03/26 12:54:48;;;;;;;;;;;;;;;;;;5106036;28;19908;-80
2022/03/26 12:57:14;;;;;;;;;;;;;;;;;;5122413;28;19907;-80
2022/03/26 12:59:40;;;;;;;;;;;;;;;;;;5121105;28;19912;-81
2022/03/26 13:02:06;;;;;;;;;;;;;;;;;;5120939;28;19916;-80
2022/03/26 13:04:32;;;;;;;;;;;;;;;;;;5103495;28;19908;-80
2022/03/26 13:06:58;;;;;;;;;;;;;;;;;;5120308;28;20240;-80
2022/03/26 13:09:23;;;;;;;;;;;;;;;;;;5120890;28;19915;-80
2022/03/26 13:11:49;;;;;;;;;;;;;;;;;;5120541;28;20309;-80
2022/03/26 13:14:15;;;;;;;;;;;;;;;;;;5120743;28;19980;-80
2022/03/26 13:16:41;;;;;;;;;;;;;;;;;;5120541;28;19990;-80
2022/03/26 13:19:07;;;;;;;;;;;;;;;;;;5120668;28;19908;-80
2022/03/26 13:21:33;;;;;;;;;;;;;;;;;;5102475;28;19914;-81
2022/03/26 13:23:59;;;;;;;;;;;;;;;;;;5119545;28;19908;-80
2022/03/26 13:26:25;;;;;;;;;;;;;;;;;;5102158;28;19907;-80
2022/03/26 13:28:51;;;;;;;;;;;;;;;;;;5084567;28;19965;-81
2022/03/26 13:31:19;;;;;;;;;;;;;;;;;;5102581;28;19943;-80
2022/03/26 13:33:45;;;;;;;;;;;;;;;;;;5085412;28;19952;-80
2022/03/26 13:36:10;;;;;;;;;;;;;;;;;;5101987;28;19994;-80
2022/03/26 13:38:36;;;;;;;;;;;;;;;;;;5120096;28;19908;-80
2022/03/26 13:41:02;;;;;;;;;;;;;;;;;;5120230;28;19908;-80
2022/03/26 13:43:28;;;;;;;;;;;;;;;;;;5119306;28;19943;-80
2022/03/26 13:45:54;;;;;;;;;;;;;;;;;;5102971;28;19920;-80
2022/03/26 13:48:22;;;;;;;;;;;;;;;;;;5119830;28;19916;-80
2022/03/26 13:50:48;;;;;;;;;;;;;;;;;;5102622;28;19908;-80
2022/03/26 13:53:14;;;;;;;;;;;;;;;;;;5103316;28;19908;-80
2022/03/26 13:55:40;;;;;;;;;;;;;;;;;;5101563;28;19919;-80
2022/03/26 13:58:10;;;;;;;;;;;;;;;;;;5121015;28;19908;-80
2022/03/26 14:00:36;;;;;;;;;;;;;;;;;;5136197;22;20030;-73
2022/03/26 14:03:02;;;;;;;;;;;;;;;;;;5131417;27;20320;-73
2022/03/26 14:05:28;;;;;;;;;;;;;;;;;;5139991;27;19907;-73
2022/03/26 14:07:54;;;;;;;;;;;;;;;;;;5139829;27;20334;-73
2022/03/26 14:10:20;;;;;;;;;;;;;;;;;;5140038;27;19945;-73
2022/03/26 14:12:46;;;;;;;;;;;;;;;;;;5139928;27;19907;-73
2022/03/26 14:15:11;;;;;;;;;;;;;;;;;;5139959;27;19995;-73
2022/03/26 14:17:37;;;;;;;;;;;;;;;;;;5141193;27;19908;-73
2022/03/26 14:20:03;;;;;;;;;;;;;;;;;;5140619;27;19913;-73
2022/03/26 14:22:29;;;;;;;;;;;;;;;;;;5139815;27;19997;-73
2022/03/26 14:24:54;;;;;;;;;;;;;;;;;;5139029;27;20300;-72
2022/03/26 14:27:20;;;;;;;;;;;;;;;;;;5139625;27;19915;-73
2022/03/26 14:29:46;;;;;;;;;;;;;;;;;;5104116;27;19907;-73
2022/03/26 14:32:12;;;;;;;;;;;;;;;;;;5139426;27;19922;-73
2022/03/26 14:34:37;;;;;;;;;;;;;;;;;;5120288;28;19946;-73
2022/03/26 14:37:03;;;;;;;;;;;;;;;;;;5139495;27;19915;-73
2022/03/26 14:39:29;;;;;;;;;;;;;;;;;;5139621;27;19923;-73
2022/03/26 14:41:54;;;;;;;;;;;;;;;;;;5139208;27;19907;-73
2022/03/26 14:44:20;;;;;;;;;;;;;;;;;;5139983;27;20258;-73
2022/03/26 14:46:46;;;;;;;;;;;;;;;;;;5121004;27;19972;-73
2022/03/26 14:49:12;;;;;;;;;;;;;;;;;;5139247;27;19956;-72
2022/03/26 14:51:38;;;;;;;;;;;;;;;;;;5138506;27;19991;-72
2022/03/26 14:54:03;;;;;;;;;;;;;;;;;;5120926;27;19907;-72
2022/03/26 14:56:29;;;;;;;;;;;;;;;;;;5139222;27;19913;-72
2022/03/26 14:58:55;;;;;;;;;;;;;;;;;;5140071;27;19907;-73
2022/03/26 15:01:20;;;;;;;;;;;;;;;;;;5139650;27;19920;-73
2022/03/26 15:03:46;;;;;;;;;;;;;;;;;;5138371;27;19907;-72
2022/03/26 15:06:12;;;;;;;;;;;;;;;;;;5138472;27;19968;-72
2022/03/26 15:08:37;;;;;;;;;;;;;;;;;;5138334;27;19950;-72
2022/03/26 15:11:04;;;;;;;;;;;;;;;;;;5138432;27;20002;-72
2022/03/26 15:13:29;;;;;;;;;;;;;;;;;;5139356;27;19918;-72
2022/03/26 15:15:55;;;;;;;;;;;;;;;;;;5138886;27;19907;-72
2022/03/26 15:18:21;;;;;;;;;;;;;;;;;;5138399;28;20312;-72
2022/03/26 15:20:46;;;;;;;;;;;;;;;;;;5138253;28;19908;-72
2022/03/26 15:23:13;;;;;;;;;;;;;;;;;;5138192;28;20220;-72
2022/03/26 15:25:38;;;;;;;;;;;;;;;;;;5138373;28;19907;-72
2022/03/26 15:28:04;;;;;;;;;;;;;;;;;;5140137;28;19960;-73
2022/03/26 15:30:30;;;;;;;;;;;;;;;;;;5138736;28;19969;-72
2022/03/26 15:32:55;;;;;;;;;;;;;;;;;;5138744;28;19908;-72
2022/03/26 15:35:21;;;;;;;;;;;;;;;;;;5138567;28;19908;-72
2022/03/26 15:37:47;;;;;;;;;;;;;;;;;;5119751;28;19907;-72
2022/03/26 15:40:12;;;;;;;;;;;;;;;;;;5120518;28;20258;-72
2022/03/26 15:42:38;;;;;;;;;;;;;;;;;;5138539;28;20007;-72
2022/03/26 15:45:04;;;;;;;;;;;;;;;;;;5120365;28;19907;-72
2022/03/26 15:47:30;;;;;;;;;;;;;;;;;;5122971;27;20292;-72
2022/03/26 15:49:55;;;;;;;;;;;;;;;;;;5142087;27;19952;-72
2022/03/26 15:52:21;;;;;;;;;;;;;;;;;;5142128;27;20227;-72
2022/03/26 15:54:47;;;;;;;;;;;;;;;;;;5124685;27;20197;-72
2022/03/26 15:57:13;;;;;;;;;;;;;;;;;;5142641;27;19915;-72
2022/03/26 15:59:38;;;;;;;;;;;;;;;;;;5142329;27;19916;-72
2022/03/26 16:02:04;;;;;;;;;;;;;;;;;;5142412;27;19908;-72
2022/03/26 16:04:30;;;;;;;;;;;;;;;;;;5124459;27;19929;-72
2022/03/26 16:06:55;;;;;;;;;;;;;;;;;;5124150;27;19916;-72
2022/03/26 16:09:21;;;;;;;;;;;;;;;;;;5143002;27;20322;-72
2022/03/26 16:11:47;;;;;;;;;;;;;;;;;;5141689;27;19994;-72
2022/03/26 16:14:12;;;;;;;;;;;;;;;;;;5142327;27;19908;-72
2022/03/26 16:16:38;;;;;;;;;;;;;;;;;;5142113;27;19917;-72
2022/03/26 16:19:08;;;;;;;;;;;;;;;;;;5142126;27;19947;-72
2022/03/26 16:21:34;;;;;;;;;;;;;;;;;;5124309;27;19972;-72
2022/03/26 16:24:00;;;;;;;;;;;;;;;;;;5106735;27;19907;-72
2022/03/26 16:26:26;;;;;;;;;;;;;;;;;;5142008;27;19994;-72
2022/03/26 16:28:51;;;;;;;;;;;;;;;;;;5141369;27;19968;-72
2022/03/26 16:31:17;;;;;;;;;;;;;;;;;;5141604;27;19908;-72
2022/03/26 16:33:43;;;;;;;;;;;;;;;;;;5141917;27;19960;-72
2022/03/26 16:36:09;;;;;;;;;;;;;;;;;;5141885;27;19938;-72
2022/03/26 16:38:34;;;;;;;;;;;;;;;;;;5141985;27;19969;-72
2022/03/26 16:41:00;;;;;;;;;;;;;;;;;;5141829;27;19914;-72
2022/03/26 16:43:29;;;;;;;;;;;;;;;;;;5141035;27;20232;-72
2022/03/26 16:45:54;;;;;;;;;;;;;;;;;;5141669;27;19998;-72
2022/03/26 16:48:20;;;;;;;;;;;;;;;;;;5141562;27;20306;-72
2022/03/26 16:50:46;;;;;;;;;;;;;;;;;;5140887;27;19907;-72